createdAt,value
2018-08-27T00:04:01.193Z,15.50
2018-08-27T00:09:07.404Z,15.60
2018-08-27T00:14:10.680Z,15.60
2018-08-27T00:19:13.856Z,15.50
2018-08-27T00:24:17.326Z,15.40
2018-08-27T00:29:20.653Z,15.30
2018-08-27T00:34:23.648Z,15.40
2018-08-27T00:39:27.309Z,15.50
2018-08-27T00:44:30.789Z,15.50
2018-08-27T00:49:34.009Z,15.40
2018-08-27T00:54:37.669Z,15.40
2018-08-27T00:59:41.158Z,15.50
2018-08-27T01:04:44.346Z,15.50
2018-08-27T01:09:47.414Z,15.50
2018-08-27T01:14:50.767Z,15.50
2018-08-27T01:19:54.056Z,15.60
2018-08-27T01:24:57.483Z,15.60
2018-08-27T01:30:00.554Z,15.70
2018-08-27T01:35:04.487Z,15.80
2018-08-27T01:40:07.710Z,15.80
2018-08-27T01:45:11.189Z,15.80
2018-08-27T01:50:14.325Z,15.80
2018-08-27T01:55:17.985Z,15.80
2018-08-27T02:00:21.169Z,15.90
2018-08-27T02:05:24.242Z,16.00
2018-08-27T02:10:27.440Z,16.20
2018-08-27T02:15:30.778Z,16.40
2018-08-27T02:20:34.206Z,16.50
2018-08-27T02:25:37.645Z,16.50
2018-08-27T02:30:41.220Z,16.60
2018-08-27T02:35:44.367Z,16.60
2018-08-27T02:40:47.582Z,16.60
2018-08-27T02:45:51.012Z,16.60
2018-08-27T02:50:54.111Z,16.60
2018-08-27T02:55:57.488Z,16.50
2018-08-27T03:01:01.202Z,16.50
2018-08-27T03:06:04.414Z,16.50
2018-08-27T03:11:07.620Z,16.60
2018-08-27T03:16:11.241Z,16.60
2018-08-27T03:21:14.892Z,16.50
2018-08-27T03:26:18.553Z,16.40
2018-08-27T03:31:21.870Z,16.40
2018-08-27T03:36:25.554Z,16.40
2018-08-27T03:41:28.820Z,16.20
2018-08-27T03:46:31.997Z,16.10
2018-08-27T03:51:35.106Z,16.10
2018-08-27T03:56:38.506Z,16.20
2018-08-27T04:01:41.859Z,16.20
2018-08-27T04:06:45.068Z,16.10
2018-08-27T04:11:48.992Z,16.20
2018-08-27T04:16:52.203Z,16.30
2018-08-27T04:21:55.951Z,16.30
2018-08-27T04:26:59.155Z,16.30
2018-08-27T04:32:02.177Z,16.40
2018-08-27T04:37:05.497Z,16.40
2018-08-27T04:42:09.034Z,16.30
2018-08-27T04:47:12.748Z,16.40
2018-08-27T04:52:15.969Z,16.40
2018-08-27T04:57:19.419Z,16.10
2018-08-27T05:02:22.847Z,15.50
2018-08-27T05:07:26.170Z,15.40
2018-08-27T05:12:29.748Z,15.50
2018-08-27T05:17:33.057Z,15.50
2018-08-27T05:22:36.209Z,15.60
2018-08-27T05:27:39.581Z,15.60
2018-08-27T05:32:42.794Z,15.90
2018-08-27T05:37:46.127Z,15.90
2018-08-27T05:42:49.251Z,15.90
2018-08-27T05:47:52.475Z,15.90
2018-08-27T05:52:55.545Z,16.00
2018-08-27T05:57:58.999Z,16.00
2018-08-27T06:03:02.127Z,15.90
2018-08-27T06:08:05.581Z,15.70
2018-08-27T06:13:09.202Z,15.80
2018-08-27T06:18:12.952Z,15.90
2018-08-27T06:23:17.030Z,15.90
2018-08-27T06:28:20.356Z,15.90
2018-08-27T06:33:23.613Z,15.80
2018-08-27T06:38:27.254Z,15.80
2018-08-27T06:43:30.591Z,15.90
2018-08-27T06:48:34.912Z,15.90
2018-08-27T06:53:38.472Z,16.00
2018-08-27T06:58:41.981Z,15.90
2018-08-27T07:03:45.081Z,15.90
2018-08-27T07:08:49.038Z,16.00
2018-08-27T07:13:52.839Z,16.30
2018-08-27T07:18:56.143Z,16.40
2018-08-27T07:23:59.465Z,16.70
2018-08-27T07:29:02.866Z,16.90
2018-08-27T07:34:06.393Z,16.90
2018-08-27T07:39:10.913Z,16.80
2018-08-27T07:44:14.133Z,16.90
2018-08-27T07:49:17.289Z,16.80
2018-08-27T07:54:21.561Z,16.70
2018-08-27T07:59:24.683Z,16.70
2018-08-27T08:04:27.769Z,16.80
2018-08-27T08:09:31.606Z,17.00
2018-08-27T08:14:35.090Z,17.20
2018-08-27T08:19:38.163Z,17.30
2018-08-27T08:24:41.405Z,17.50
2018-08-27T08:29:44.384Z,17.50
2018-08-27T08:34:47.550Z,17.40
2018-08-27T08:39:50.848Z,17.10
2018-08-27T08:44:54.068Z,17.00
2018-08-27T08:49:57.536Z,16.70
2018-08-27T08:55:00.686Z,16.40
2018-08-27T09:00:04.176Z,16.50
2018-08-27T09:05:07.725Z,16.70
2018-08-27T09:10:11.032Z,16.90
2018-08-27T09:15:14.227Z,17.00
2018-08-27T09:20:17.322Z,16.70
2018-08-27T09:25:20.938Z,16.80
2018-08-27T09:30:24.245Z,16.90
2018-08-27T09:35:27.567Z,17.20
2018-08-27T09:40:30.779Z,17.60
2018-08-27T09:45:33.986Z,17.60
2018-08-27T09:50:36.986Z,17.90
2018-08-27T09:55:40.447Z,18.30
2018-08-27T10:00:48.996Z,18.10
2018-08-27T10:05:52.028Z,18.10
2018-08-27T10:10:55.256Z,17.90
2018-08-27T10:15:58.348Z,17.90
2018-08-27T10:21:01.410Z,17.90
2018-08-27T10:26:04.903Z,18.30
2018-08-27T10:31:08.633Z,18.60
2018-08-27T10:36:11.916Z,18.50
2018-08-27T10:41:15.269Z,18.50
2018-08-27T10:46:18.432Z,18.70
2018-08-27T10:51:22.065Z,18.80
2018-08-27T10:56:25.551Z,19.30
2018-08-27T11:01:28.601Z,19.20
2018-08-27T11:06:32.002Z,19.00
2018-08-27T11:11:35.533Z,19.10
2018-08-27T11:16:38.953Z,19.00
2018-08-27T11:21:42.274Z,18.90
2018-08-27T11:26:46.561Z,18.80
2018-08-27T11:31:49.648Z,18.80
2018-08-27T11:36:52.680Z,18.90
2018-08-27T11:41:55.695Z,19.00
2018-08-27T11:46:58.748Z,18.70
2018-08-27T11:52:01.892Z,18.70
2018-08-27T11:57:05.741Z,18.60
2018-08-27T12:02:09.020Z,18.50
2018-08-27T12:07:12.092Z,18.70
2018-08-27T12:12:15.107Z,18.50
2018-08-27T12:17:18.297Z,18.70
2018-08-27T12:22:21.598Z,18.80
2018-08-27T12:27:24.982Z,18.90
2018-08-27T12:32:27.970Z,18.80
2018-08-27T12:37:31.218Z,19.00
2018-08-27T12:42:34.521Z,19.20
2018-08-27T12:47:37.740Z,19.30
2018-08-27T12:52:40.831Z,19.60
2018-08-27T12:57:44.311Z,20.00
2018-08-27T13:02:48.187Z,20.00
2018-08-27T13:07:51.381Z,19.80
2018-08-27T13:12:54.437Z,19.70
2018-08-27T13:17:57.663Z,20.00
2018-08-27T13:23:00.893Z,20.60
2018-08-27T13:28:04.207Z,21.30
2018-08-27T13:33:08.214Z,21.00
2018-08-27T13:38:11.459Z,21.20
2018-08-27T13:43:14.886Z,20.80
2018-08-27T13:48:18.033Z,20.90
2018-08-27T13:53:21.295Z,21.30
2018-08-27T13:58:24.568Z,21.40
2018-08-27T14:03:27.923Z,21.30
2018-08-27T14:08:31.528Z,21.30
2018-08-27T14:13:34.747Z,21.40
2018-08-27T14:18:38.137Z,21.40
2018-08-27T14:23:41.927Z,21.30
2018-08-27T14:28:45.251Z,21.80
2018-08-27T14:33:48.427Z,22.10
2018-08-27T14:38:52.867Z,22.00
2018-08-27T14:43:56.995Z,22.10
2018-08-27T14:49:01.134Z,22.10
2018-08-27T14:54:05.926Z,22.00
2018-08-27T14:59:10.228Z,22.10
2018-08-27T15:04:13.958Z,22.20
2018-08-27T15:09:18.323Z,22.20
2018-08-27T15:14:21.476Z,22.20
2018-08-27T15:19:24.502Z,22.40
2018-08-27T15:24:27.681Z,22.60
2018-08-27T15:29:30.740Z,22.30
2018-08-27T15:34:33.724Z,22.10
2018-08-27T15:39:36.733Z,22.10
2018-08-27T15:44:39.833Z,22.20
2018-08-27T15:49:42.868Z,21.90
2018-08-27T15:54:45.901Z,21.80
2018-08-27T15:59:49.121Z,21.90
2018-08-27T16:04:52.340Z,21.80
2018-08-27T16:09:55.378Z,21.80
2018-08-27T16:14:58.654Z,21.70
2018-08-27T16:20:01.710Z,21.70
2018-08-27T16:25:04.811Z,21.70
2018-08-27T16:30:11.067Z,21.70
2018-08-27T16:35:14.113Z,21.70
2018-08-27T16:40:17.320Z,21.40
2018-08-27T16:45:20.654Z,21.20
2018-08-27T16:50:23.719Z,21.20
2018-08-27T16:55:26.803Z,21.30
2018-08-27T17:00:30.200Z,21.30
2018-08-27T17:05:33.345Z,21.10
2018-08-27T17:10:36.414Z,21.00
2018-08-27T17:15:39.413Z,21.00
2018-08-27T17:20:42.552Z,20.90
2018-08-27T17:25:46.725Z,20.80
2018-08-27T17:30:50.225Z,20.70
2018-08-27T17:35:53.381Z,20.70
2018-08-27T17:40:56.424Z,20.60
2018-08-27T17:45:59.545Z,20.50
2018-08-27T17:51:02.731Z,20.40
2018-08-27T17:56:05.907Z,20.30
2018-08-27T18:01:09.326Z,20.20
2018-08-27T18:06:12.551Z,20.10
2018-08-27T18:11:16.099Z,20.00
2018-08-27T18:16:19.940Z,20.00
2018-08-27T18:21:23.246Z,19.90
2018-08-27T18:26:26.975Z,19.80
2018-08-27T18:31:30.410Z,19.80
2018-08-27T18:36:33.938Z,19.60
2018-08-27T18:41:37.329Z,19.50
2018-08-27T18:46:40.723Z,19.40
2018-08-27T18:51:43.881Z,19.20
2018-08-27T18:56:46.818Z,19.10
2018-08-27T19:01:50.248Z,19.00
2018-08-27T19:06:53.984Z,19.00
2018-08-27T19:11:57.794Z,18.90
2018-08-27T19:17:01.412Z,18.80
2018-08-27T19:22:04.849Z,18.80
2018-08-27T19:27:08.442Z,18.70
2018-08-27T19:32:11.959Z,18.50
2018-08-27T19:37:15.752Z,18.40
2018-08-27T19:42:19.316Z,18.40
2018-08-27T19:47:22.397Z,18.40
2018-08-27T19:52:25.479Z,18.30
2018-08-27T19:57:28.836Z,18.10
2018-08-27T20:02:31.867Z,18.10
2018-08-27T20:07:35.069Z,18.00
2018-08-27T20:12:38.109Z,17.80
2018-08-27T20:17:41.440Z,17.70
2018-08-27T20:22:44.508Z,17.70
2018-08-27T20:27:47.831Z,17.70
2018-08-27T20:32:51.004Z,17.60
2018-08-27T20:37:54.184Z,17.50
2018-08-27T20:42:57.354Z,17.40
2018-08-27T20:48:00.323Z,17.20
2018-08-27T20:53:03.360Z,17.00
2018-08-27T20:58:06.476Z,16.80
2018-08-27T21:03:09.604Z,16.90
2018-08-27T21:08:12.572Z,16.90
2018-08-27T21:13:15.589Z,16.90
2018-08-27T21:18:18.799Z,16.90
2018-08-27T21:23:21.922Z,17.00
2018-08-27T21:28:24.859Z,17.00
2018-08-27T21:33:27.821Z,16.90
2018-08-27T21:38:30.819Z,16.80
2018-08-27T21:43:33.891Z,16.70
2018-08-27T21:48:36.916Z,16.70
2018-08-27T21:53:39.956Z,16.40
2018-08-27T21:58:42.974Z,16.20
2018-08-27T22:04:22.243Z,16.10
2018-08-27T22:09:25.392Z,16.00
2018-08-27T22:14:28.367Z,15.90
2018-08-27T22:19:31.381Z,15.80
2018-08-27T22:24:34.399Z,15.70
2018-08-27T22:29:37.379Z,15.50
2018-08-27T22:34:40.371Z,15.50
2018-08-27T22:39:43.411Z,15.10
2018-08-27T22:44:46.715Z,15.00
2018-08-27T22:49:49.784Z,15.10
2018-08-27T22:54:52.736Z,15.40
2018-08-27T22:59:55.841Z,15.90
2018-08-27T23:04:59.717Z,16.30
2018-08-27T23:10:02.762Z,16.30
2018-08-27T23:15:05.760Z,16.20
2018-08-27T23:20:08.773Z,16.10
2018-08-27T23:25:11.702Z,16.00
2018-08-27T23:30:15.365Z,16.10
2018-08-27T23:35:18.449Z,16.20
2018-08-27T23:40:21.436Z,16.00
2018-08-27T23:45:24.346Z,15.90
2018-08-27T23:50:34.150Z,15.90
2018-08-27T23:55:37.084Z,15.70
